Time;durP1;ratioP1;P1;durP2;ratioP2;P2;SDS_P1;SDS_P2;PMS_P1;PMS_P2;Temp;Humidity;BMP_temperature;BMP_pressure;BME280_temperature;BME280_humidity;BME280_pressure;Samples;Min_cycle;Max_cycle;Signal;HPM_P1;HPM_P2
2023/08/12 00:00:21;;;;;;;2.70;1.80;;;16.80;99.90;;;;;;5015305;28;20070;-72
2023/08/12 00:02:47;;;;;;;2.92;2.15;;;16.80;99.90;;;;;;5015466;28;20034;-73
2023/08/12 00:05:13;;;;;;;3.15;2.00;;;16.70;99.90;;;;;;5014226;28;20037;-73
2023/08/12 00:07:42;;;;;;;4.47;2.10;;;16.70;99.90;;;;;;5015264;28;20034;-73
2023/08/12 00:10:09;;;;;;;3.05;1.90;;;16.60;99.90;;;;;;5013821;28;20022;-72
2023/08/12 00:12:35;;;;;;;2.95;2.00;;;16.60;99.90;;;;;;5014346;28;20456;-73
2023/08/12 00:15:02;;;;;;;3.53;1.88;;;16.60;99.90;;;;;;5015130;28;20036;-73
2023/08/12 00:17:28;;;;;;;6.55;2.10;;;16.50;99.90;;;;;;5014970;28;20057;-73
2023/08/12 00:19:54;;;;;;;3.53;2.20;;;16.50;99.90;;;;;;5015118;28;20438;-72
2023/08/12 00:22:20;;;;;;;4.63;2.40;;;16.40;99.90;;;;;;5015046;28;20476;-73
2023/08/12 00:24:46;;;;;;;4.63;2.05;;;16.30;99.90;;;;;;5014972;28;20113;-73
2023/08/12 00:27:11;;;;;;;4.65;2.70;;;16.30;99.90;;;;;;5015075;28;20033;-73
2023/08/12 00:29:37;;;;;;;4.55;3.17;;;16.20;99.90;;;;;;5014809;28;20438;-72
2023/08/12 00:32:03;;;;;;;5.32;2.80;;;16.20;99.90;;;;;;5013541;28;20033;-73
2023/08/12 00:34:28;;;;;;;5.05;2.50;;;16.20;99.90;;;;;;5013518;28;20071;-73
2023/08/12 00:36:54;;;;;;;3.88;2.53;;;16.10;99.90;;;;;;5013463;28;20077;-72
2023/08/12 00:39:20;;;;;;;3.08;2.20;;;16.10;99.90;;;;;;5014892;28;20040;-72
2023/08/12 00:41:46;;;;;;;3.47;1.80;;;16.10;99.90;;;;;;5014644;28;20184;-73
2023/08/12 00:44:12;;;;;;;3.10;2.10;;;16.10;99.90;;;;;;5014584;28;20030;-73
2023/08/12 00:46:42;;;;;;;2.83;2.00;;;16.10;99.90;;;;;;5013395;28;20438;-72
2023/08/12 00:49:09;;;;;;;3.30;2.00;;;16.00;99.90;;;;;;5015212;28;20048;-72
2023/08/12 00:51:35;;;;;;;3.75;2.08;;;16.00;99.90;;;;;;5014814;28;20065;-73
2023/08/12 00:54:05;;;;;;;4.07;1.95;;;15.90;99.90;;;;;;5014503;28;20170;-73
2023/08/12 00:56:31;;;;;;;2.60;1.65;;;15.90;99.90;;;;;;5014531;28;20026;-73
2023/08/12 00:59:00;;;;;;;3.22;2.20;;;15.90;99.90;;;;;;5014320;28;20030;-72
2023/08/12 01:01:26;;;;;;;2.88;1.88;;;15.90;99.90;;;;;;5014995;28;20033;-73
2023/08/12 01:03:52;;;;;;;2.67;1.75;;;15.90;99.90;;;;;;4996903;28;20033;-72
2023/08/12 01:06:17;;;;;;;2.90;1.70;;;15.80;99.90;;;;;;5014160;28;20026;-72
2023/08/12 01:08:44;;;;;;;5.25;2.08;;;15.80;99.90;;;;;;5014308;28;20034;-72
2023/08/12 01:11:28;;;;;;;2.75;1.83;;;15.70;99.90;;;;;;5014164;28;20018;-72
2023/08/12 01:14:21;;;;;;;4.38;2.20;;;15.60;99.90;;;;;;5014199;28;20022;-73
2023/08/12 01:16:51;;;;;;;3.95;1.83;;;15.50;99.90;;;;;;5013022;28;20030;-72
2023/08/12 01:19:37;;;;;;;2.67;1.70;;;15.40;99.90;;;;;;5012651;28;20037;-72
2023/08/12 01:22:04;;;;;;;5.28;1.88;;;15.30;99.90;;;;;;5013739;28;20080;-73
2023/08/12 01:24:37;;;;;;;2.90;1.95;;;15.30;99.90;;;;;;5013910;28;20058;-73
2023/08/12 01:27:04;;;;;;;3.88;1.63;;;15.40;99.90;;;;;;5014109;28;20085;-72
2023/08/12 01:29:31;;;;;;;3.05;1.90;;;15.30;99.90;;;;;;5013828;28;20426;-72
2023/08/12 01:32:18;;;;;;;2.67;1.90;;;15.30;99.90;;;;;;5013828;28;20022;-73
2023/08/12 01:35:19;;;;;;;3.10;2.13;;;15.30;99.90;;;;;;5002971;28;20042;-73
2023/08/12 01:37:45;;;;;;;4.95;2.00;;;15.30;99.90;;;;;;5013812;28;20049;-73
2023/08/12 01:40:13;;;;;;;2.97;1.80;;;15.20;99.90;;;;;;5013714;28;20132;-72
2023/08/12 01:42:40;;;;;;;4.22;2.50;;;15.20;99.90;;;;;;5013754;28;20030;-72
2023/08/12 01:45:06;;;;;;;4.72;1.90;;;15.20;99.90;;;;;;5013710;28;20076;-73
2023/08/12 01:47:32;;;;;;;2.42;1.67;;;15.20;99.90;;;;;;5012328;28;20048;-73
2023/08/12 01:49:58;;;;;;;3.58;1.88;;;15.20;99.90;;;;;;5013852;28;20018;-72
2023/08/12 01:52:25;;;;;;;4.28;2.08;;;15.10;99.90;;;;;;5013672;28;20037;-72
2023/08/12 01:54:51;;;;;;;2.45;1.67;;;15.10;99.90;;;;;;5013904;28;20463;-73
2023/08/12 01:57:16;;;;;;;4.70;2.10;;;15.10;99.90;;;;;;5013604;28;20062;-73
2023/08/12 01:59:43;;;;;;;2.90;1.95;;;15.00;99.90;;;;;;5013506;28;20057;-72
2023/08/12 02:02:09;;;;;;;3.10;1.95;;;15.00;99.90;;;;;;5013444;28;20069;-72
2023/08/12 02:04:37;;;;;;;3.40;1.75;;;15.00;99.90;;;;;;5013787;28;20034;-72
2023/08/12 02:07:03;;;;;;;3.25;2.00;;;15.00;99.90;;;;;;5013467;28;20022;-73
2023/08/12 02:09:29;;;;;;;3.00;1.88;;;14.90;99.90;;;;;;5012243;28;20113;-72
2023/08/12 02:11:54;;;;;;;3.30;1.70;;;14.90;99.90;;;;;;5013783;28;20080;-73
2023/08/12 02:14:20;;;;;;;2.88;2.03;;;14.90;99.90;;;;;;5014280;28;20484;-73
2023/08/12 02:16:45;;;;;;;3.13;2.00;;;14.80;99.90;;;;;;5013489;28;20500;-72
2023/08/12 02:19:11;;;;;;;3.15;2.00;;;14.80;99.90;;;;;;5013383;28;20436;-72
2023/08/12 02:21:37;;;;;;;3.85;1.98;;;14.80;99.90;;;;;;5012199;28;20459;-73
2023/08/12 02:24:03;;;;;;;5.57;1.80;;;14.80;99.90;;;;;;5013285;28;20057;-72
2023/08/12 02:26:28;;;;;;;2.47;1.92;;;14.80;99.90;;;;;;5013233;28;20510;-72
2023/08/12 02:28:54;;;;;;;4.50;2.10;;;14.70;99.90;;;;;;5013239;28;20069;-72
2023/08/12 02:31:20;;;;;;;5.53;2.08;;;14.70;99.90;;;;;;5013484;28;20080;-73
2023/08/12 02:33:45;;;;;;;3.40;1.85;;;14.70;99.90;;;;;;5015392;28;20026;-72
2023/08/12 02:36:11;;;;;;;2.28;1.67;;;14.60;99.90;;;;;;5017277;28;20030;-73
2023/08/12 02:38:37;;;;;;;3.28;1.85;;;14.50;99.90;;;;;;5017137;28;20048;-72
2023/08/12 02:41:05;;;;;;;4.55;1.90;;;14.40;99.90;;;;;;5017187;28;20480;-73
2023/08/12 02:43:31;;;;;;;3.65;2.13;;;14.20;99.90;;;;;;5017067;28;20427;-72
2023/08/12 02:45:56;;;;;;;4.00;2.08;;;14.10;99.90;;;;;;5015815;28;20034;-73
2023/08/12 02:48:22;;;;;;;2.50;1.77;;;14.00;99.90;;;;;;5016630;28;20026;-73
2023/08/12 02:50:47;;;;;;;2.95;1.92;;;14.00;99.90;;;;;;5016799;28;20061;-73
2023/08/12 02:53:15;;;;;;;3.75;2.10;;;14.00;99.90;;;;;;5015504;28;20026;-72
2023/08/12 02:55:40;;;;;;;3.88;2.00;;;14.00;99.90;;;;;;5015398;28;20022;-72
2023/08/12 02:58:06;;;;;;;3.17;2.17;;;14.00;99.90;;;;;;5015660;28;20030;-71
2023/08/12 03:00:32;;;;;;;3.78;1.88;;;14.00;99.90;;;;;;5015566;28;20034;-72
2023/08/12 03:02:57;;;;;;;4.28;2.22;;;14.00;99.90;;;;;;5016465;28;20495;-72
2023/08/12 03:05:23;;;;;;;3.17;1.98;;;14.00;99.90;;;;;;5016735;28;20513;-73
2023/08/12 03:07:49;;;;;;;4.68;1.98;;;14.00;99.90;;;;;;5015704;28;20443;-73
2023/08/12 03:10:15;;;;;;;3.20;2.20;;;14.00;99.90;;;;;;5016808;28;20022;-70
2023/08/12 03:12:41;;;;;;;3.58;1.90;;;14.00;99.90;;;;;;5016301;28;20028;-69
2023/08/12 03:15:07;;;;;;;3.17;1.80;;;14.00;99.90;;;;;;5016245;28;20084;-70
2023/08/12 03:17:33;;;;;;;5.65;2.20;;;14.00;99.90;;;;;;5016601;28;20096;-69
2023/08/12 03:20:04;;;;;;;2.88;1.75;;;14.00;99.90;;;;;;5016243;28;20060;-69
2023/08/12 03:22:30;;;;;;;3.20;2.03;;;14.00;99.90;;;;;;5016116;28;20030;-69
2023/08/12 03:24:56;;;;;;;3.55;1.70;;;14.00;99.90;;;;;;4998773;28;20104;-69
2023/08/12 03:27:21;;;;;;;3.38;1.95;;;14.00;99.90;;;;;;5016387;28;20036;-70
2023/08/12 03:29:47;;;;;;;3.00;1.77;;;13.90;99.90;;;;;;5016497;28;20045;-69
2023/08/12 03:32:13;;;;;;;4.10;1.70;;;13.90;99.90;;;;;;5016277;28;20388;-69
2023/08/12 03:34:39;;;;;;;3.00;1.90;;;13.90;99.90;;;;;;5015928;28;20037;-69
2023/08/12 03:37:04;;;;;;;4.65;1.70;;;13.90;99.90;;;;;;4999057;28;20026;-69
2023/08/12 03:39:30;;;;;;;2.97;1.98;;;13.80;99.90;;;;;;5015724;28;20149;-69
2023/08/12 03:41:56;;;;;;;2.72;2.08;;;13.80;99.90;;;;;;5015765;28;20033;-69
2023/08/12 03:44:21;;;;;;;3.30;2.00;;;13.70;99.90;;;;;;5015679;28;20033;-69
2023/08/12 03:46:47;;;;;;;4.03;2.00;;;13.70;99.90;;;;;;5015402;28;20037;-69
2023/08/12 03:49:12;;;;;;;3.30;1.95;;;13.60;99.90;;;;;;5015835;28;20050;-69
2023/08/12 03:51:38;;;;;;;2.35;1.55;;;13.50;99.90;;;;;;5015865;28;20034;-69
2023/08/12 03:54:04;;;;;;;2.58;1.77;;;13.50;99.90;;;;;;5014461;28;20026;-69
2023/08/12 03:56:30;;;;;;;2.65;1.88;;;13.60;99.90;;;;;;5015684;28;20026;-69
2023/08/12 03:58:55;;;;;;;3.33;1.88;;;13.50;99.90;;;;;;5015984;28;20033;-69
2023/08/12 04:01:21;;;;;;;3.47;1.77;;;13.60;99.90;;;;;;5015393;28;20076;-69
2023/08/12 04:03:47;;;;;;;3.05;1.80;;;13.60;99.90;;;;;;5015524;28;20507;-69
2023/08/12 04:06:13;;;;;;;2.80;1.90;;;13.60;99.90;;;;;;5017139;28;20110;-70
2023/08/12 04:08:39;;;;;;;4.00;1.90;;;13.50;99.90;;;;;;5016491;28;20610;-70
2023/08/12 04:11:05;;;;;;;2.88;1.80;;;13.50;99.90;;;;;;5016880;28;20034;-69
2023/08/12 04:13:30;;;;;;;1.95;1.33;;;13.50;99.90;;;;;;5018241;28;20052;-70
2023/08/12 04:15:56;;;;;;;3.08;1.63;;;13.50;99.90;;;;;;5034658;28;20098;-69
2023/08/12 04:18:22;;;;;;;3.50;1.65;;;13.50;99.90;;;;;;5035010;28;20536;-69
2023/08/12 04:20:53;;;;;;;3.97;2.03;;;13.50;99.90;;;;;;5023814;28;20033;-69
2023/08/12 04:23:19;;;;;;;2.47;1.75;;;13.40;99.90;;;;;;5017263;28;20030;-70
2023/08/12 04:25:46;;;;;;;3.08;1.63;;;13.40;99.90;;;;;;5017033;28;20084;-70
2023/08/12 04:28:12;;;;;;;5.38;1.92;;;13.40;99.90;;;;;;5019104;28;20053;-69
2023/08/12 04:30:46;;;;;;;3.83;1.90;;;13.40;99.90;;;;;;5034775;28;20475;-69
2023/08/12 04:33:13;;;;;;;4.32;1.80;;;13.40;99.90;;;;;;5033990;28;20056;-69
2023/08/12 04:35:39;;;;;;;2.60;1.70;;;13.40;99.90;;;;;;5034816;28;20021;-69
2023/08/12 04:38:05;;;;;;;2.90;2.00;;;13.30;99.90;;;;;;5033497;28;20542;-69
2023/08/12 04:40:31;;;;;;;3.80;1.90;;;13.30;99.90;;;;;;5034661;28;20045;-69
2023/08/12 04:42:58;;;;;;;3.08;1.98;;;13.30;99.90;;;;;;5032592;28;20526;-69
2023/08/12 04:45:24;;;;;;;4.50;2.25;;;13.20;99.90;;;;;;5032784;28;20033;-69
2023/08/12 04:47:49;;;;;;;3.45;2.22;;;13.20;99.90;;;;;;5034735;28;20104;-70
2023/08/12 04:50:16;;;;;;;3.08;1.92;;;13.20;99.90;;;;;;5032601;28;20022;-69
2023/08/12 04:52:41;;;;;;;2.83;1.98;;;13.20;99.90;;;;;;5034283;28;20022;-69
2023/08/12 04:55:07;;;;;;;2.65;1.80;;;13.10;99.90;;;;;;5034145;28;20404;-69
2023/08/12 04:57:33;;;;;;;3.10;1.80;;;13.10;99.90;;;;;;5018103;28;20034;-69
2023/08/12 04:59:59;;;;;;;3.92;2.05;;;13.20;99.90;;;;;;5014337;28;20037;-69
2023/08/12 05:02:24;;;;;;;5.32;2.00;;;13.10;99.90;;;;;;5016334;28;20499;-69
2023/08/12 05:04:51;;;;;;;2.47;1.80;;;13.10;99.90;;;;;;5019086;28;20109;-70
2023/08/12 05:07:17;;;;;;;4.18;2.13;;;13.20;99.90;;;;;;5006757;28;20109;-70
2023/08/12 05:09:45;;;;;;;3.58;1.77;;;13.20;99.90;;;;;;5011586;28;20489;-70
2023/08/12 05:12:12;;;;;;;4.13;1.98;;;13.20;99.90;;;;;;5032287;28;20033;-70
2023/08/12 05:14:39;;;;;;;3.85;1.80;;;13.20;99.90;;;;;;5032399;28;20574;-70
2023/08/12 05:17:05;;;;;;;3.72;2.08;;;13.20;99.90;;;;;;5014415;28;20037;-70
2023/08/12 05:19:32;;;;;;;3.83;2.35;;;13.20;99.90;;;;;;5031371;28;20487;-69
2023/08/12 05:21:57;;;;;;;2.95;2.08;;;13.20;99.90;;;;;;5034187;28;20029;-69
2023/08/12 05:24:23;;;;;;;3.83;2.45;;;13.20;99.90;;;;;;5033921;28;20052;-69
2023/08/12 05:26:49;;;;;;;4.40;2.40;;;13.20;99.90;;;;;;5027881;28;20029;-69
2023/08/12 05:29:14;;;;;;;3.20;2.20;;;13.20;99.90;;;;;;5013844;28;20026;-69
2023/08/12 05:31:40;;;;;;;3.45;2.08;;;13.20;99.90;;;;;;5014083;28;20034;-69
2023/08/12 05:34:06;;;;;;;3.67;2.15;;;13.20;99.90;;;;;;5025355;28;20014;-69
2023/08/12 05:36:31;;;;;;;4.00;2.35;;;13.20;99.90;;;;;;5032582;28;20112;-70
2023/08/12 05:38:57;;;;;;;3.15;2.35;;;13.30;99.90;;;;;;5032723;28;20373;-69
2023/08/12 05:41:23;;;;;;;3.58;2.40;;;13.30;99.90;;;;;;5032313;28;20025;-69
2023/08/12 05:43:48;;;;;;;4.00;2.40;;;13.40;99.90;;;;;;5033156;28;20071;-69
2023/08/12 05:46:14;;;;;;;4.53;2.60;;;13.50;99.90;;;;;;5032190;28;20053;-70
2023/08/12 05:48:40;;;;;;;3.00;2.20;;;13.50;99.90;;;;;;5033202;28;20038;-69
2023/08/12 05:51:06;;;;;;;4.38;2.42;;;13.60;99.90;;;;;;5033334;28;20032;-69
2023/08/12 05:53:32;;;;;;;3.63;2.30;;;13.70;99.90;;;;;;5033337;28;20105;-69
2023/08/12 05:55:59;;;;;;;4.18;2.47;;;13.70;99.90;;;;;;5033259;28;20026;-70
2023/08/12 05:58:24;;;;;;;3.17;2.22;;;13.80;99.90;;;;;;5033262;28;20057;-69
2023/08/12 06:00:50;;;;;;;4.18;2.22;;;13.80;99.90;;;;;;5033238;28;20392;-70
2023/08/12 06:03:16;;;;;;;3.50;2.60;;;13.90;99.90;;;;;;5033221;28;20029;-70
2023/08/12 06:05:45;;;;;;;3.67;2.35;;;14.00;99.90;;;;;;5032057;28;20037;-70
2023/08/12 06:08:11;;;;;;;6.95;2.72;;;14.10;99.90;;;;;;5034132;28;20113;-70
2023/08/12 06:10:36;;;;;;;3.25;2.10;;;14.10;99.90;;;;;;5037284;28;20053;-70
2023/08/12 06:13:02;;;;;;;4.72;2.40;;;14.20;99.90;;;;;;5024643;28;20091;-70
2023/08/12 06:15:28;;;;;;;4.45;2.75;;;14.20;99.90;;;;;;4997750;28;20121;-70
2023/08/12 06:17:53;;;;;;;3.70;2.40;;;14.30;99.90;;;;;;4997572;28;20084;-70
2023/08/12 06:20:19;;;;;;;3.03;2.20;;;14.40;99.90;;;;;;4998000;28;20034;-70
2023/08/12 06:22:45;;;;;;;3.97;2.70;;;14.50;99.90;;;;;;4998900;28;20388;-70
2023/08/12 06:25:10;;;;;;;3.50;2.65;;;14.50;99.90;;;;;;4996410;28;20027;-70
2023/08/12 06:27:36;;;;;;;3.55;2.60;;;14.60;99.90;;;;;;4996601;28;20038;-70
2023/08/12 06:30:02;;;;;;;3.88;2.50;;;14.70;99.90;;;;;;4997701;28;20359;-70
2023/08/12 06:32:28;;;;;;;4.63;2.80;;;14.70;99.90;;;;;;4997432;28;20022;-70
2023/08/12 06:34:53;;;;;;;4.45;2.75;;;14.80;99.90;;;;;;5006919;28;20033;-70
2023/08/12 06:37:19;;;;;;;4.88;2.90;;;14.90;99.90;;;;;;5017221;28;20043;-70
2023/08/12 06:39:45;;;;;;;4.22;2.90;;;15.00;99.90;;;;;;5016834;28;20062;-70
2023/08/12 06:42:10;;;;;;;5.80;2.90;;;15.10;99.90;;;;;;5017445;28;20034;-70
2023/08/12 06:44:36;;;;;;;4.35;2.30;;;15.20;99.90;;;;;;5017138;28;20092;-70
2023/08/12 06:47:01;;;;;;;3.53;2.40;;;15.30;99.90;;;;;;5016751;28;20034;-70
2023/08/12 06:49:27;;;;;;;3.63;2.60;;;15.40;99.90;;;;;;5009576;28;20050;-70
2023/08/12 06:51:53;;;;;;;4.97;3.05;;;15.50;99.90;;;;;;4997099;28;20080;-70
2023/08/12 06:54:18;;;;;;;5.32;3.30;;;15.60;99.90;;;;;;4995838;28;20023;-70
2023/08/12 06:56:44;;;;;;;5.05;3.17;;;15.60;99.90;;;;;;4997021;28;20027;-70
2023/08/12 06:59:10;;;;;;;5.60;3.85;;;15.70;99.90;;;;;;4996930;28;20485;-70
2023/08/12 07:01:36;;;;;;;6.72;4.30;;;15.80;99.90;;;;;;5013770;28;20040;-70
2023/08/12 07:04:02;;;;;;;6.00;3.72;;;15.80;99.90;;;;;;5015219;28;20124;-70
2023/08/12 07:06:27;;;;;;;5.50;3.97;;;15.90;99.90;;;;;;5016743;28;20033;-70
2023/08/12 07:08:53;;;;;;;4.60;3.60;;;16.00;99.90;;;;;;5016223;28;20113;-70
2023/08/12 07:11:19;;;;;;;5.85;3.63;;;16.10;99.90;;;;;;5016389;28;20487;-70
2023/08/12 07:13:46;;;;;;;4.68;3.53;;;16.20;99.90;;;;;;5016318;28;20436;-70
2023/08/12 07:16:12;;;;;;;4.82;3.75;;;16.40;99.90;;;;;;5016299;28;20053;-70
2023/08/12 07:18:37;;;;;;;6.70;3.83;;;16.50;99.90;;;;;;5016128;28;20072;-70
2023/08/12 07:21:04;;;;;;;5.45;4.30;;;16.50;99.90;;;;;;5015202;28;20021;-70
2023/08/12 07:23:29;;;;;;;5.63;4.45;;;16.60;99.90;;;;;;5015576;28;20113;-70
2023/08/12 07:25:55;;;;;;;5.63;4.35;;;16.70;99.90;;;;;;5015609;28;20100;-70
2023/08/12 07:28:21;;;;;;;6.32;4.22;;;16.80;99.90;;;;;;5016104;28;20030;-70
2023/08/12 07:30:49;;;;;;;5.60;4.05;;;16.90;99.90;;;;;;5016253;28;20380;-70
2023/08/12 07:33:14;;;;;;;4.65;3.78;;;17.10;99.90;;;;;;5015999;28;20060;-70
2023/08/12 07:35:41;;;;;;;5.50;4.00;;;17.20;99.90;;;;;;5015963;28;20022;-70
2023/08/12 07:38:06;;;;;;;6.00;3.85;;;17.30;99.90;;;;;;5015868;28;20104;-70
2023/08/12 07:40:32;;;;;;;3.90;3.33;;;17.40;99.90;;;;;;5015838;28;20061;-70
2023/08/12 07:42:58;;;;;;;4.10;3.22;;;17.50;99.90;;;;;;5015788;28;20073;-70
2023/08/12 07:45:23;;;;;;;3.85;2.95;;;17.70;99.90;;;;;;5016056;28;20026;-70
2023/08/12 07:47:50;;;;;;;3.78;3.08;;;17.90;99.90;;;;;;5015607;28;20034;-70
2023/08/12 07:50:15;;;;;;;3.90;2.88;;;18.00;99.90;;;;;;5015563;28;20388;-70
2023/08/12 07:52:41;;;;;;;5.50;2.90;;;18.20;99.90;;;;;;5015834;28;20022;-70
2023/08/12 07:55:07;;;;;;;5.57;3.03;;;18.30;99.90;;;;;;5015532;28;20109;-70
2023/08/12 07:57:33;;;;;;;3.63;2.38;;;18.50;99.90;;;;;;5015571;28;20022;-70
2023/08/12 07:59:58;;;;;;;4.32;2.58;;;18.60;99.90;;;;;;5015389;28;20034;-70
2023/08/12 08:02:24;;;;;;;3.85;2.50;;;18.70;99.90;;;;;;5015430;28;20030;-70
2023/08/12 08:04:50;;;;;;;4.63;2.95;;;18.80;99.90;;;;;;5015340;28;20034;-70
2023/08/12 08:07:16;;;;;;;3.78;2.45;;;18.90;99.90;;;;;;5015254;28;20388;-70
2023/08/12 08:09:42;;;;;;;3.55;2.38;;;19.10;99.90;;;;;;5015230;28;20030;-70
2023/08/12 08:12:09;;;;;;;3.38;2.15;;;19.30;99.90;;;;;;5015511;28;20018;-70
2023/08/12 08:14:35;;;;;;;2.88;1.92;;;19.40;99.90;;;;;;5013931;28;20120;-70
2023/08/12 08:17:01;;;;;;;3.08;2.20;;;19.50;99.90;;;;;;5015608;28;20477;-70
2023/08/12 08:19:27;;;;;;;2.80;2.05;;;19.70;99.90;;;;;;5014902;28;20046;-71
2023/08/12 08:21:53;;;;;;;2.72;2.05;;;19.80;99.90;;;;;;5015261;28;20076;-71
2023/08/12 08:24:18;;;;;;;3.65;2.20;;;20.00;99.90;;;;;;5015251;28;20105;-71
2023/08/12 08:26:45;;;;;;;3.83;3.00;;;20.20;99.90;;;;;;5015164;28;20030;-71
2023/08/12 08:29:11;;;;;;;3.42;2.55;;;20.40;99.90;;;;;;5014814;28;20054;-71
2023/08/12 08:31:37;;;;;;;3.10;2.30;;;20.40;99.90;;;;;;5014711;28;20061;-71
2023/08/12 08:34:02;;;;;;;4.82;2.10;;;20.60;99.90;;;;;;5015114;28;20022;-71
2023/08/12 08:36:28;;;;;;;3.03;2.20;;;20.70;99.90;;;;;;5014790;28;20018;-71
2023/08/12 08:38:54;;;;;;;3.55;1.90;;;21.00;99.90;;;;;;5014658;28;20033;-71
2023/08/12 08:41:21;;;;;;;3.03;2.10;;;21.10;99.90;;;;;;5013421;28;20030;-71
2023/08/12 08:43:48;;;;;;;2.65;2.00;;;21.30;99.90;;;;;;5014657;28;20034;-71
2023/08/12 08:46:17;;;;;;;3.63;2.30;;;21.50;99.90;;;;;;5014622;28;20029;-71
2023/08/12 08:48:43;;;;;;;4.78;2.40;;;21.70;99.90;;;;;;5013132;28;20392;-71
2023/08/12 08:51:11;;;;;;;2.72;2.40;;;21.80;99.90;;;;;;5014463;28;20436;-71
2023/08/12 08:53:38;;;;;;;4.13;2.70;;;21.90;99.90;;;;;;5014458;28;20507;-71
2023/08/12 08:56:08;;;;;;;3.22;2.15;;;22.10;99.90;;;;;;5014654;28;20029;-71
2023/08/12 08:58:34;;;;;;;3.60;2.15;;;22.30;99.90;;;;;;5014298;28;20520;-71
2023/08/12 09:01:01;;;;;;;3.45;2.55;;;22.50;99.90;;;;;;5014283;28;20057;-71
2023/08/12 09:03:27;;;;;;;4.13;3.10;;;22.60;99.90;;;;;;5014546;28;20042;-71
2023/08/12 09:05:55;;;;;;;4.40;2.47;;;22.80;99.90;;;;;;5014472;28;20168;-71
2023/08/12 09:08:23;;;;;;;4.18;2.50;;;22.90;99.90;;;;;;5014180;28;20053;-71
2023/08/12 09:10:49;;;;;;;3.75;2.70;;;23.10;99.90;;;;;;5015149;28;20392;-72
2023/08/12 09:13:16;;;;;;;3.70;2.75;;;23.20;99.90;;;;;;5014696;28;20022;-72
2023/08/12 09:15:41;;;;;;;4.25;2.45;;;23.40;99.90;;;;;;5014665;28;20092;-72
2023/08/12 09:18:07;;;;;;;3.72;2.65;;;23.50;99.90;;;;;;5014528;28;20529;-72
2023/08/12 09:20:34;;;;;;;4.00;2.22;;;23.60;99.90;;;;;;5008798;28;20034;-71
2023/08/12 09:23:00;;;;;;;5.15;2.40;;;23.60;99.90;;;;;;4994388;28;20081;-71
2023/08/12 09:25:29;;;;;;;3.78;2.80;;;23.80;99.90;;;;;;4994685;28;20034;-72
2023/08/12 09:27:58;;;;;;;3.00;2.40;;;23.90;99.90;;;;;;4994702;28;20113;-72
2023/08/12 09:30:24;;;;;;;3.45;2.25;;;24.00;99.90;;;;;;4994924;28;20491;-72
2023/08/12 09:33:00;;;;;;;2.40;1.98;;;24.20;99.90;;;;;;4995021;28;20026;-72
2023/08/12 09:35:39;;;;;;;2.60;1.70;;;24.30;99.90;;;;;;4994902;28;20057;-72
2023/08/12 09:38:14;;;;;;;2.30;1.48;;;24.40;98.20;;;;;;4994890;28;20516;-72
2023/08/12 09:40:42;;;;;;;2.17;1.13;;;24.50;96.00;;;;;;4994599;28;20030;-72
2023/08/12 09:43:08;;;;;;;2.17;1.30;;;24.60;92.50;;;;;;4994331;28;20035;-72
2023/08/12 09:45:34;;;;;;;2.58;1.40;;;24.70;89.30;;;;;;4994523;28;20030;-72
2023/08/12 09:48:01;;;;;;;3.60;1.60;;;24.80;91.50;;;;;;4994242;28;20030;-72
2023/08/12 09:50:27;;;;;;;1.90;1.40;;;24.90;91.50;;;;;;4994502;28;20050;-72
2023/08/12 09:52:54;;;;;;;2.33;1.75;;;25.00;91.80;;;;;;4994339;28;20031;-72
2023/08/12 09:55:22;;;;;;;3.00;1.90;;;25.10;92.00;;;;;;4994749;28;20045;-72
2023/08/12 09:57:52;;;;;;;2.60;1.85;;;25.30;93.30;;;;;;4994513;28;20439;-72
2023/08/12 10:00:19;;;;;;;3.17;1.85;;;25.40;93.60;;;;;;4994312;28;20105;-72
2023/08/12 10:02:46;;;;;;;2.38;1.80;;;25.50;93.60;;;;;;4994636;28;20048;-72
2023/08/12 10:05:18;;;;;;;3.30;1.98;;;25.60;94.90;;;;;;4994191;28;20053;-72
2023/08/12 10:07:45;;;;;;;3.42;2.10;;;25.80;94.30;;;;;;4994737;28;20018;-72
2023/08/12 10:10:12;;;;;;;2.38;1.77;;;26.00;95.00;;;;;;5009105;28;20393;-72
2023/08/12 10:12:39;;;;;;;2.60;1.50;;;26.10;94.20;;;;;;4994184;28;20026;-72
2023/08/12 10:15:06;;;;;;;2.55;1.95;;;26.20;93.40;;;;;;4994081;28;20030;-72
2023/08/12 10:17:33;;;;;;;2.50;1.90;;;26.30;93.50;;;;;;4994543;28;20049;-74
2023/08/12 10:20:04;;;;;;;3.80;1.90;;;26.50;93.70;;;;;;4994679;28;20042;-74
2023/08/12 10:22:30;;;;;;;2.53;1.90;;;26.70;94.20;;;;;;4995072;28;20058;-74
2023/08/12 10:25:01;;;;;;;2.65;1.70;;;26.90;94.20;;;;;;4994523;28;20061;-74
2023/08/12 10:27:27;;;;;;;5.03;2.00;;;27.10;93.10;;;;;;4994812;28;20512;-74
2023/08/12 10:29:55;;;;;;;2.70;1.80;;;27.20;92.50;;;;;;4994977;28;20038;-74
2023/08/12 10:32:21;;;;;;;2.30;1.50;;;27.30;92.90;;;;;;4994610;28;20101;-74
2023/08/12 10:34:56;;;;;;;2.30;1.63;;;27.40;92.90;;;;;;4994578;28;20034;-74
2023/08/12 10:37:24;;;;;;;2.95;1.67;;;27.50;92.30;;;;;;4994780;28;20508;-74
2023/08/12 10:39:51;;;;;;;2.72;1.88;;;27.60;91.50;;;;;;4993080;28;20030;-74
2023/08/12 10:42:45;;;;;;;3.60;2.20;;;27.70;91.00;;;;;;4994483;28;20130;-74
2023/08/12 10:45:14;;;;;;;2.92;1.83;;;27.80;91.60;;;;;;4994304;28;20045;-74
2023/08/12 10:47:48;;;;;;;3.50;1.58;;;27.90;90.60;;;;;;4994086;28;20130;-73
2023/08/12 10:50:21;;;;;;;3.58;1.98;;;28.00;90.60;;;;;;4994736;28;20049;-74
2023/08/12 10:52:51;;;;;;;3.08;1.92;;;28.10;90.60;;;;;;4994739;28;20385;-74
2023/08/12 10:55:22;;;;;;;3.35;1.98;;;28.20;91.30;;;;;;4994122;28;20177;-74
2023/08/12 10:57:49;;;;;;;2.60;1.58;;;28.20;89.70;;;;;;4997962;28;20030;-75
2023/08/12 11:00:16;;;;;;;2.90;1.90;;;28.30;89.30;;;;;;4997339;28;20026;-74
2023/08/12 11:02:48;;;;;;;2.47;1.80;;;28.40;89.80;;;;;;4997228;28;20502;-74
2023/08/12 11:05:14;;;;;;;2.63;1.75;;;28.50;90.80;;;;;;4997079;28;20504;-74
2023/08/12 11:07:42;;;;;;;2.70;1.85;;;28.70;91.40;;;;;;4997113;28;20477;-74
2023/08/12 11:10:15;;;;;;;4.25;2.00;;;28.80;90.80;;;;;;4997378;28;20033;-74
2023/08/12 11:12:47;;;;;;;3.42;2.10;;;29.00;89.90;;;;;;4997206;28;20105;-74
2023/08/12 11:15:13;;;;;;;2.42;1.77;;;29.20;88.70;;;;;;4996883;28;20073;-74
2023/08/12 11:17:40;;;;;;;3.05;2.10;;;29.40;88.00;;;;;;5011896;28;20451;-75
2023/08/12 11:20:10;;;;;;;4.53;2.08;;;29.50;85.60;;;;;;4997010;28;20034;-74
2023/08/12 11:22:40;;;;;;;;;;;29.50;84.30;;;;;;4997742;28;20103;-74
2023/08/12 11:25:08;;;;;;;;;;;29.50;82.20;;;;;;4997124;28;19912;-74
2023/08/12 11:27:37;;;;;;;;;;;29.60;86.00;;;;;;4997056;28;20390;-74
2023/08/12 11:30:03;;;;;;;;;;;29.80;86.30;;;;;;4995794;28;19912;-74
2023/08/12 11:32:29;;;;;;;;;;;30.00;87.40;;;;;;4997080;28;19933;-74
2023/08/12 11:34:54;;;;;;;;;;;30.30;85.10;;;;;;4997158;28;20284;-75
2023/08/12 11:37:20;;;;;;;;;;;30.40;83.60;;;;;;5011959;28;19917;-75
2023/08/12 11:39:45;;;;;;;;;;;30.60;81.70;;;;;;4997140;28;19910;-74
2023/08/12 11:42:11;;;;;;;;;;;30.70;77.20;;;;;;4996768;28;19932;-75
2023/08/12 11:44:37;;;;;;;;;;;30.80;74.40;;;;;;4996751;28;20434;-75
2023/08/12 11:47:03;;;;;;;;;;;30.80;72.30;;;;;;4996654;28;19921;-75
2023/08/12 11:49:28;;;;;;;;;;;30.70;73.00;;;;;;4996993;28;19909;-74
2023/08/12 11:51:54;;;;;;;;;;;30.70;74.20;;;;;;4996731;28;19910;-75
2023/08/12 11:54:20;;;;;;;;;;;30.60;76.20;;;;;;4997122;28;20288;-75
2023/08/12 11:56:46;;;;;;;;;;;30.50;76.90;;;;;;4996798;28;20327;-74
2023/08/12 11:59:12;;;;;;;;;;;30.50;77.20;;;;;;4996465;28;19910;-75
2023/08/12 12:01:38;;;;;;;;;;;30.40;78.80;;;;;;4996559;28;19916;-75
2023/08/12 12:04:04;;;;;;;;;;;30.50;81.30;;;;;;5011423;28;19960;-75
2023/08/12 12:06:35;;;;;;;;;;;30.50;73.90;;;;;;4996023;28;19993;-75
2023/08/12 12:09:05;;;;;;;;;;;30.40;76.70;;;;;;5011394;28;19913;-75
2023/08/12 12:11:31;;;;;;;;;;;30.50;74.40;;;;;;4996407;28;19929;-75
2023/08/12 12:13:59;;;;;;;;;;;30.50;72.90;;;;;;4996754;28;19917;-75
2023/08/12 12:16:25;;;;;;;;;;;30.40;74.40;;;;;;4996692;28;19905;-75
2023/08/12 12:18:56;;;;;;;;;;;30.40;73.40;;;;;;4994850;28;19964;-74
2023/08/12 12:21:22;;;;;;;;;;;30.30;73.10;;;;;;4996672;28;19913;-75
2023/08/12 12:23:52;;;;;;;;;;;30.30;74.30;;;;;;4996189;28;19945;-74
2023/08/12 12:26:17;;;;;;;;;;;30.30;75.40;;;;;;4996117;28;19934;-75
2023/08/12 12:28:43;;;;;;;;;;;30.30;73.80;;;;;;4996351;28;19909;-74
2023/08/12 12:31:09;;;;;;;;;;;30.30;76.30;;;;;;4996132;28;19910;-75
2023/08/12 12:33:34;;;;;;;;;;;30.30;74.20;;;;;;4996114;28;19960;-75
2023/08/12 12:36:00;;;;;;;;;;;30.30;69.60;;;;;;4996598;28;19909;-75
2023/08/12 12:38:26;;;;;;;;;;;30.30;73.20;;;;;;4995670;28;20292;-74
2023/08/12 12:40:51;;;;;;;;;;;30.30;71.60;;;;;;4995741;28;19914;-75
2023/08/12 12:43:17;;;;;;;;;;;30.20;70.90;;;;;;4995759;28;19921;-75
2023/08/12 12:45:42;;;;;;;;;;;30.00;71.40;;;;;;4995725;28;19912;-75
2023/08/12 12:48:08;;;;;;;;;;;30.00;72.60;;;;;;4994330;28;19913;-75
2023/08/12 12:50:35;;;;;;;;;;;29.90;71.80;;;;;;4995425;28;20000;-74
2023/08/12 12:53:00;;;;;;;;;;;29.90;73.00;;;;;;4994290;28;20000;-75
2023/08/12 12:55:26;;;;;;;;;;;29.80;72.80;;;;;;4995408;28;20446;-74